SEGU/GYE METAR and TAF weather

Enter ICAO airport designator
Station Type Date Time Source
SEGU METAR 2020/06/05 11:00 UTC NOAA

SEGU 051100Z 22008KT 9999 BKN026 BKN100 22/19 Q1011 NOSIG RMK A2987


Station Type Date Time Source
SEGU Decoded METAR 2020/06/05 11:00 UTC NOAA

Guayaquil / Simon Bolivar, Ecuador (SEGU) 02-09S 079-53W 9M
Jun 05, 2020 - 07:00 AM EDT / 2020.06.05 1100 UTC
Wind: from the SW (220 degrees) at 9 MPH (8 KT):0
Visibility: greater than 7 mile(s):0
Sky conditions: mostly cloudy
Temperature: 71 F (22 C)
Dew Point: 66 F (19 C)
Relative Humidity: 83%
Pressure (altimeter): 29.85 in. Hg (1011 hPa)
ob: SEGU 051100Z 22008KT 9999 BKN026 BKN100 22/19 Q1011 NOSIG RMK A2987
cycle: 11

Station Type Date Time Source
SEGU TAF 2020/06/05 12:57 UTC NOAA

TAF SEGU 050920Z 0512/0612 21008KT 9999 SCT030 SCT100
BECMG 0515/0517 FEW030
BECMG 0520/0522 SCT030 SCT100
BECMG 0600/0602 19012KT FEW010 SCT030 TX31/0520Z TN23/0610Z

Example: see airport list